createdAt,value
2022-11-05T00:00:36.900Z,79.10
2022-11-05T00:03:22.476Z,79.30
2022-11-05T00:06:10.013Z,79.30
2022-11-05T00:08:57.126Z,79.60
2022-11-05T00:11:43.873Z,79.50
2022-11-05T00:14:36.882Z,79.50
2022-11-05T00:17:03.645Z,79.40
2022-11-05T00:19:30.357Z,79.50
2022-11-05T00:22:15.830Z,79.60
2022-11-05T00:25:01.361Z,79.40
2022-11-05T00:27:28.224Z,79.50
2022-11-05T00:29:54.917Z,79.60
2022-11-05T00:32:21.706Z,79.60
2022-11-05T00:34:48.417Z,79.70
2022-11-05T00:37:15.180Z,79.60
2022-11-05T00:39:41.974Z,79.80
2022-11-05T00:42:27.243Z,79.30
2022-11-05T00:45:03.174Z,79.60
2022-11-05T00:47:50.139Z,79.60
2022-11-05T00:50:17.557Z,79.50
2022-11-05T00:52:56.242Z,79.40
2022-11-05T00:55:37.996Z,79.50
2022-11-05T00:58:07.807Z,79.20
2022-11-05T01:00:36.822Z,79.20
2022-11-05T01:03:07.654Z,79.50
2022-11-05T01:05:38.513Z,79.60
2022-11-05T01:08:05.335Z,79.40
2022-11-05T01:10:32.168Z,79.50
2022-11-05T01:12:59.253Z,79.60
2022-11-05T01:15:26.146Z,79.80
2022-11-05T01:17:52.949Z,79.80
2022-11-05T01:20:19.936Z,79.80
2022-11-05T01:22:46.706Z,80.00
2022-11-05T01:25:13.662Z,80.10
2022-11-05T01:27:40.664Z,80.30
2022-11-05T01:30:08.981Z,79.90
2022-11-05T01:32:36.781Z,80.20
2022-11-05T01:35:09.164Z,79.80
2022-11-05T01:37:36.381Z,80.10
2022-11-05T01:40:04.119Z,80.00
2022-11-05T01:42:32.443Z,80.10
2022-11-05T01:45:00.610Z,80.20
2022-11-05T01:47:36.385Z,80.00
2022-11-05T01:50:15.274Z,80.10
2022-11-05T01:52:42.112Z,79.60
2022-11-05T01:55:10.073Z,80.00
2022-11-05T01:57:37.073Z,80.30
2022-11-05T02:00:04.904Z,80.20
2022-11-05T02:02:31.802Z,79.90
2022-11-05T02:05:02.166Z,80.20
2022-11-05T02:07:30.638Z,80.10
2022-11-05T02:10:13.983Z,80.10
2022-11-05T02:12:43.900Z,80.20
2022-11-05T02:15:13.194Z,79.80
2022-11-05T02:17:45.994Z,79.90
2022-11-05T02:20:35.277Z,79.80
2022-11-05T02:23:23.151Z,79.80
2022-11-05T02:26:11.945Z,79.60
2022-11-05T02:29:14.395Z,79.60
2022-11-05T02:32:02.738Z,79.50
2022-11-05T02:34:38.700Z,79.70
2022-11-05T02:37:25.185Z,79.90
2022-11-05T02:40:23.049Z,79.90
2022-11-05T02:43:03.098Z,79.50
2022-11-05T02:46:01.721Z,79.90
2022-11-05T02:48:52.204Z,79.70
2022-11-05T02:51:37.181Z,79.90
2022-11-05T02:54:06.756Z,79.60
2022-11-05T02:56:39.556Z,80.10
2022-11-05T02:59:06.480Z,79.60
2022-11-05T03:01:35.920Z,79.70
2022-11-05T03:04:06.296Z,79.80
2022-11-05T03:06:48.330Z,79.70
2022-11-05T03:09:44.927Z,79.70
2022-11-05T03:12:34.445Z,79.40
2022-11-05T03:15:27.604Z,79.50
2022-11-05T03:18:22.005Z,79.40
2022-11-05T03:21:05.586Z,79.40
2022-11-05T03:23:44.826Z,79.30
2022-11-05T03:26:31.901Z,79.40
2022-11-05T03:29:06.702Z,79.40
2022-11-05T03:31:37.028Z,79.20
2022-11-05T03:34:05.602Z,79.00
2022-11-05T03:36:41.432Z,78.90
2022-11-05T03:39:31.129Z,78.80
2022-11-05T03:41:59.049Z,78.90
2022-11-05T03:44:29.928Z,78.80
2022-11-05T03:47:04.345Z,79.00
2022-11-05T03:49:37.884Z,78.70
2022-11-05T03:52:17.946Z,78.70
2022-11-05T03:54:45.788Z,78.80
2022-11-05T03:57:26.061Z,78.50
2022-11-05T03:59:52.903Z,78.60
2022-11-05T04:02:22.807Z,78.70
2022-11-05T04:04:49.748Z,79.60
2022-11-05T04:07:34.918Z,79.20
2022-11-05T04:10:20.369Z,79.10
2022-11-05T04:13:05.708Z,79.20
2022-11-05T04:15:55.367Z,79.10
2022-11-05T04:18:22.578Z,79.00
2022-11-05T04:21:07.710Z,78.80
2022-11-05T04:23:53.173Z,78.10
2022-11-05T04:26:23.419Z,77.00
2022-11-05T04:29:09.753Z,76.80
2022-11-05T04:31:36.836Z,77.10
2022-11-05T04:34:03.750Z,76.50
2022-11-05T04:36:30.812Z,75.80
2022-11-05T04:38:57.553Z,76.30
2022-11-05T04:41:25.457Z,76.00
2022-11-05T04:43:52.402Z,76.20
2022-11-05T04:46:19.160Z,75.10
2022-11-05T04:48:45.953Z,74.80
2022-11-05T04:51:12.730Z,74.90
2022-11-05T04:53:39.508Z,73.40
2022-11-05T04:56:10.420Z,74.30
2022-11-05T04:58:41.722Z,73.30
2022-11-05T05:01:13.618Z,73.50
2022-11-05T05:03:40.491Z,73.80
2022-11-05T05:06:07.911Z,73.30
2022-11-05T05:08:35.227Z,73.80
2022-11-05T05:11:09.321Z,73.60
2022-11-05T05:13:36.252Z,74.00
2022-11-05T05:16:07.863Z,74.00
2022-11-05T05:18:35.316Z,73.90
2022-11-05T05:21:21.144Z,74.00
2022-11-05T05:23:48.513Z,74.00
2022-11-05T05:26:18.081Z,74.20
2022-11-05T05:28:44.903Z,74.50
2022-11-05T05:31:11.690Z,74.30
2022-11-05T05:33:38.405Z,74.40
2022-11-05T05:36:10.906Z,74.40
2022-11-05T05:38:38.241Z,74.80
2022-11-05T05:41:05.149Z,74.90
2022-11-05T05:43:34.826Z,74.00
2022-11-05T05:46:06.617Z,73.00
2022-11-05T05:48:33.985Z,72.80
2022-11-05T05:51:05.921Z,72.20
2022-11-05T05:53:33.307Z,72.40
2022-11-05T05:56:00.590Z,72.50
2022-11-05T05:58:34.989Z,72.60
2022-11-05T06:01:04.501Z,72.70
2022-11-05T06:03:31.559Z,71.50
2022-11-05T06:06:13.192Z,71.10
2022-11-05T06:08:40.600Z,70.60
2022-11-05T06:11:08.315Z,70.00
2022-11-05T06:13:35.958Z,69.20
2022-11-05T06:16:08.370Z,69.00
2022-11-05T06:18:36.001Z,69.00
2022-11-05T06:21:10.784Z,68.80
2022-11-05T06:23:39.218Z,68.70
2022-11-05T06:26:08.950Z,69.00
2022-11-05T06:28:36.060Z,69.70
2022-11-05T06:31:03.310Z,68.90
2022-11-05T06:33:30.519Z,68.60
2022-11-05T06:36:01.978Z,69.30
2022-11-05T06:38:31.517Z,69.00
2022-11-05T06:40:59.507Z,68.90
2022-11-05T06:43:27.372Z,69.10
2022-11-05T06:45:54.987Z,69.20
2022-11-05T06:48:21.769Z,68.90
2022-11-05T06:50:48.919Z,69.10
2022-11-05T06:53:15.662Z,68.60
2022-11-05T06:55:44.859Z,69.10
2022-11-05T06:58:11.844Z,69.60
2022-11-05T07:00:38.763Z,70.20
2022-11-05T07:03:07.274Z,69.80
2022-11-05T07:05:37.263Z,67.50
2022-11-05T07:08:04.282Z,66.90
2022-11-05T07:10:31.096Z,66.10
2022-11-05T07:12:58.026Z,65.50
2022-11-05T07:15:24.825Z,65.10
2022-11-05T07:17:57.518Z,64.40
2022-11-05T07:20:25.645Z,64.00
2022-11-05T07:23:06.611Z,63.40
2022-11-05T07:25:34.555Z,63.60
2022-11-05T07:28:01.848Z,63.10
2022-11-05T07:30:29.161Z,61.30
2022-11-05T07:32:56.348Z,60.80
2022-11-05T07:35:23.225Z,60.10
2022-11-05T07:37:51.529Z,60.30
2022-11-05T07:40:19.408Z,60.00
2022-11-05T07:42:51.388Z,59.20
2022-11-05T07:45:18.845Z,59.10
2022-11-05T07:47:47.104Z,58.70
2022-11-05T07:50:14.817Z,58.20
2022-11-05T07:52:41.822Z,57.90
2022-11-05T07:55:09.163Z,57.80
2022-11-05T07:57:49.163Z,57.20
2022-11-05T08:00:19.971Z,57.60
2022-11-05T08:03:08.842Z,57.40
2022-11-05T08:05:38.183Z,57.70
2022-11-05T08:08:07.052Z,55.90
2022-11-05T08:10:34.316Z,56.50
2022-11-05T08:13:02.537Z,55.90
2022-11-05T08:15:29.580Z,56.40
2022-11-05T08:18:08.892Z,56.20
2022-11-05T08:20:36.359Z,56.10
2022-11-05T08:23:03.317Z,55.20
2022-11-05T08:25:30.246Z,55.90
2022-11-05T08:27:58.932Z,55.60
2022-11-05T08:30:26.229Z,55.40
2022-11-05T08:33:01.309Z,55.60
2022-11-05T08:35:29.004Z,54.90
2022-11-05T08:38:00.698Z,54.10
2022-11-05T08:40:28.063Z,54.40
2022-11-05T08:42:58.129Z,54.40
2022-11-05T08:45:29.254Z,54.40
2022-11-05T08:48:07.720Z,54.10
2022-11-05T08:50:34.931Z,53.90
2022-11-05T08:53:02.046Z,54.10
2022-11-05T08:55:28.974Z,54.70
2022-11-05T08:58:00.513Z,53.70
2022-11-05T09:00:29.508Z,53.60
2022-11-05T09:03:00.239Z,53.70
2022-11-05T09:05:27.683Z,53.30
2022-11-05T09:08:00.819Z,52.50
2022-11-05T09:10:28.799Z,53.00
2022-11-05T09:12:55.785Z,52.80
2022-11-05T09:15:23.667Z,53.00
2022-11-05T09:17:50.907Z,52.90
2022-11-05T09:20:18.002Z,52.80
2022-11-05T09:22:46.666Z,52.80
2022-11-05T09:25:15.818Z,53.10
2022-11-05T09:27:43.197Z,53.00
2022-11-05T09:30:12.171Z,53.30
2022-11-05T09:32:38.983Z,52.90
2022-11-05T09:35:06.757Z,53.50
2022-11-05T09:37:33.648Z,53.20
2022-11-05T09:40:00.407Z,53.60
2022-11-05T09:42:39.615Z,54.00
2022-11-05T09:45:20.437Z,54.40
2022-11-05T09:47:55.628Z,54.80
2022-11-05T09:50:36.569Z,55.80
2022-11-05T09:53:04.594Z,56.20
2022-11-05T09:55:39.496Z,57.10
2022-11-05T09:58:40.955Z,57.00
2022-11-05T10:01:18.204Z,57.00
2022-11-05T10:03:49.486Z,56.30
2022-11-05T10:06:22.374Z,56.40
2022-11-05T10:09:03.717Z,56.40
2022-11-05T10:11:48.140Z,56.50
2022-11-05T10:14:29.248Z,55.40
2022-11-05T10:17:12.833Z,55.30
2022-11-05T10:19:51.700Z,55.50
2022-11-05T10:22:19.697Z,55.30
2022-11-05T10:24:49.242Z,54.60
2022-11-05T10:27:23.428Z,53.70
2022-11-05T10:29:50.956Z,53.40
2022-11-05T10:32:30.850Z,53.10
2022-11-05T10:35:01.331Z,53.10
2022-11-05T10:37:28.922Z,52.60
2022-11-05T10:39:56.169Z,52.10
2022-11-05T10:43:06.520Z,51.10
2022-11-05T10:45:54.700Z,51.80
2022-11-05T10:48:43.497Z,52.40
2022-11-05T10:51:11.656Z,51.80
2022-11-05T10:53:39.164Z,51.60
2022-11-05T10:56:33.372Z,51.10
2022-11-05T10:59:01.841Z,50.60
2022-11-05T11:01:29.698Z,50.40
2022-11-05T11:04:22.354Z,51.20
2022-11-05T11:06:55.189Z,50.60
2022-11-05T11:09:26.308Z,49.50
2022-11-05T11:12:07.387Z,49.50
2022-11-05T11:14:35.242Z,48.80
2022-11-05T11:17:28.706Z,48.50
2022-11-05T11:20:30.501Z,48.40
2022-11-05T11:23:13.984Z,47.70
2022-11-05T11:25:44.298Z,46.70
2022-11-05T11:28:21.160Z,47.10
2022-11-05T11:31:08.189Z,47.50
2022-11-05T11:33:36.630Z,45.50
2022-11-05T11:36:04.278Z,45.30
2022-11-05T11:38:33.847Z,45.20
2022-11-05T11:41:11.482Z,45.50
2022-11-05T11:43:41.222Z,45.20
2022-11-05T11:46:20.082Z,45.30
2022-11-05T11:48:48.606Z,44.70
2022-11-05T11:51:19.952Z,45.00
2022-11-05T11:53:49.965Z,45.70
2022-11-05T11:56:20.358Z,45.00
2022-11-05T11:58:55.285Z,44.80
2022-11-05T12:01:32.336Z,45.10
2022-11-05T12:04:10.957Z,43.60
2022-11-05T12:06:46.325Z,43.20
2022-11-05T12:09:18.066Z,43.10
2022-11-05T12:12:10.080Z,42.80
2022-11-05T12:15:01.393Z,42.40
2022-11-05T12:17:30.968Z,42.70
2022-11-05T12:20:18.442Z,42.60
2022-11-05T12:22:47.977Z,43.00
2022-11-05T12:25:29.040Z,42.40
2022-11-05T12:28:20.198Z,41.80
2022-11-05T12:31:22.362Z,41.80
2022-11-05T12:34:43.299Z,42.50
2022-11-05T12:37:20.177Z,41.50
2022-11-05T12:40:07.797Z,42.30
2022-11-05T12:42:50.773Z,42.20
2022-11-05T12:45:43.901Z,42.30
2022-11-05T12:48:36.765Z,42.20
2022-11-05T12:51:27.953Z,42.00
2022-11-05T12:54:25.065Z,42.10
2022-11-05T12:56:58.780Z,42.40
2022-11-05T12:59:41.647Z,42.30
2022-11-05T13:02:37.506Z,41.70
2022-11-05T13:05:13.769Z,40.20
2022-11-05T13:07:58.020Z,40.60
2022-11-05T13:10:32.678Z,40.60
2022-11-05T13:13:23.134Z,41.20
2022-11-05T13:15:55.238Z,41.20
2022-11-05T13:18:30.585Z,40.20
2022-11-05T13:21:02.133Z,39.20
2022-11-05T13:23:37.936Z,39.60
2022-11-05T13:26:19.742Z,39.10
2022-11-05T13:29:12.875Z,39.40
2022-11-05T13:31:45.622Z,39.50
2022-11-05T13:34:13.610Z,39.50
2022-11-05T13:37:13.825Z,39.60
2022-11-05T13:39:48.324Z,39.50
2022-11-05T13:42:40.001Z,40.40
2022-11-05T13:45:18.971Z,40.10
2022-11-05T13:48:00.114Z,38.40
2022-11-05T13:50:51.766Z,38.80
2022-11-05T13:53:30.566Z,39.40
2022-11-05T13:56:21.387Z,39.10
2022-11-05T13:59:12.597Z,39.40
2022-11-05T14:01:42.584Z,39.30
2022-11-05T14:04:24.575Z,39.70
2022-11-05T14:06:51.657Z,39.80
2022-11-05T14:09:27.249Z,39.90
2022-11-05T14:11:58.971Z,39.60
2022-11-05T14:14:31.540Z,39.50
2022-11-05T14:17:07.145Z,38.90
2022-11-05T14:19:49.029Z,39.10
2022-11-05T14:22:32.086Z,39.40
2022-11-05T14:25:17.258Z,39.30
2022-11-05T14:27:47.221Z,39.50
2022-11-05T14:30:48.127Z,39.00
2022-11-05T14:33:27.083Z,39.50
2022-11-05T14:36:22.483Z,39.90
2022-11-05T14:39:00.039Z,39.50
2022-11-05T14:41:29.970Z,38.90
2022-11-05T14:44:01.500Z,39.60
2022-11-05T14:46:47.983Z,40.20
2022-11-05T14:49:35.902Z,40.40
2022-11-05T14:52:09.281Z,39.70
2022-11-05T14:54:49.584Z,39.60
2022-11-05T14:57:42.063Z,39.40
2022-11-05T15:00:31.201Z,39.50
2022-11-05T15:03:05.377Z,39.40
2022-11-05T15:05:33.295Z,39.80
2022-11-05T15:08:20.619Z,39.60
2022-11-05T15:10:49.156Z,40.80
2022-11-05T15:13:31.750Z,41.30
2022-11-05T15:15:59.717Z,41.20
2022-11-05T15:18:44.671Z,41.20
2022-11-05T15:21:15.342Z,41.70
2022-11-05T15:23:45.669Z,41.20
2022-11-05T15:26:21.427Z,41.60
2022-11-05T15:28:50.723Z,42.10
2022-11-05T15:31:36.273Z,42.20
2022-11-05T15:34:20.586Z,41.80
2022-11-05T15:36:57.656Z,41.90
2022-11-05T15:39:32.179Z,42.30
2022-11-05T15:42:02.796Z,42.60
2022-11-05T15:44:39.226Z,43.00
2022-11-05T15:47:17.909Z,42.90
2022-11-05T15:50:14.024Z,43.20
2022-11-05T15:52:53.266Z,43.10
2022-11-05T15:55:25.243Z,43.90
2022-11-05T15:58:01.024Z,43.50
2022-11-05T16:00:30.810Z,43.40
2022-11-05T16:03:06.604Z,43.90
2022-11-05T16:05:43.899Z,43.80
2022-11-05T16:08:23.316Z,44.30
2022-11-05T16:10:52.876Z,44.20
2022-11-05T16:13:32.155Z,44.50
2022-11-05T16:16:02.485Z,44.20
2022-11-05T16:18:34.786Z,44.50
2022-11-05T16:21:07.177Z,45.10
2022-11-05T16:23:55.367Z,45.40
2022-11-05T16:27:01.380Z,45.10
2022-11-05T16:29:46.744Z,45.30
2022-11-05T16:32:28.515Z,45.20
2022-11-05T16:35:00.858Z,45.00
2022-11-05T16:37:29.831Z,45.10
2022-11-05T16:39:56.664Z,45.80
2022-11-05T16:42:23.410Z,45.80
2022-11-05T16:44:51.706Z,45.70
2022-11-05T16:47:19.621Z,45.70
2022-11-05T16:49:48.453Z,46.20
2022-11-05T16:52:15.562Z,46.30
2022-11-05T16:54:42.648Z,46.70
2022-11-05T16:57:23.334Z,46.60
2022-11-05T16:59:50.219Z,46.40
2022-11-05T17:02:17.272Z,46.90
2022-11-05T17:04:44.296Z,47.20
2022-11-05T17:07:11.110Z,47.10
2022-11-05T17:09:37.962Z,46.90
2022-11-05T17:12:05.035Z,47.40
2022-11-05T17:14:31.784Z,47.40
2022-11-05T17:17:01.165Z,47.60
2022-11-05T17:19:28.299Z,47.30
2022-11-05T17:21:55.278Z,47.50
2022-11-05T17:24:22.186Z,47.50
2022-11-05T17:26:48.968Z,47.60
2022-11-05T17:29:15.846Z,47.50
2022-11-05T17:31:42.735Z,47.80
2022-11-05T17:34:10.351Z,47.30
2022-11-05T17:36:37.128Z,47.50
2022-11-05T17:39:04.318Z,46.80
2022-11-05T17:41:31.081Z,47.20
2022-11-05T17:43:58.294Z,48.00
2022-11-05T17:46:25.579Z,48.10
2022-11-05T17:48:52.382Z,48.70
2022-11-05T17:51:20.337Z,48.60
2022-11-05T17:53:49.022Z,49.30
2022-11-05T17:56:28.876Z,49.40
2022-11-05T17:59:01.196Z,50.20
2022-11-05T18:01:33.898Z,49.40
2022-11-05T18:04:07.204Z,49.20
2022-11-05T18:06:36.714Z,49.20
2022-11-05T18:09:05.323Z,49.40
2022-11-05T18:11:32.433Z,49.10
2022-11-05T18:13:59.475Z,49.40
2022-11-05T18:16:26.575Z,50.50
2022-11-05T18:18:53.415Z,50.10
2022-11-05T18:21:20.345Z,49.50
2022-11-05T18:23:47.120Z,49.90
2022-11-05T18:26:16.012Z,50.40
2022-11-05T18:28:43.686Z,50.60
2022-11-05T18:31:20.580Z,51.20
2022-11-05T18:33:49.219Z,51.60
2022-11-05T18:36:43.517Z,52.10
2022-11-05T18:39:12.030Z,52.10
2022-11-05T18:41:39.104Z,52.50
2022-11-05T18:44:06.415Z,53.50
2022-11-05T18:46:57.159Z,53.90
2022-11-05T18:49:21.114Z,53.40
2022-11-05T18:51:48.175Z,54.10
2022-11-05T18:54:15.157Z,54.10
2022-11-05T18:56:45.491Z,54.40
2022-11-05T19:02:06.922Z,54.10
2022-11-05T19:04:36.238Z,54.20
2022-11-05T19:07:05.399Z,54.30
2022-11-05T19:09:37.287Z,54.50
2022-11-05T19:12:04.974Z,54.70
2022-11-05T19:14:31.907Z,54.80
2022-11-05T19:16:59.517Z,54.70
2022-11-05T19:19:26.377Z,55.30
2022-11-05T19:21:53.170Z,55.80
2022-11-05T19:24:20.218Z,55.60
2022-11-05T19:26:47.572Z,54.40
2022-11-05T19:29:14.474Z,55.30
2022-11-05T19:31:41.447Z,55.70
2022-11-05T19:34:08.333Z,56.20
2022-11-05T19:36:35.237Z,55.50
2022-11-05T19:39:06.416Z,55.80
2022-11-05T19:41:33.575Z,54.30
2022-11-05T19:44:01.953Z,55.30
2022-11-05T19:46:29.729Z,55.70
2022-11-05T19:48:56.741Z,54.80
2022-11-05T19:51:25.981Z,55.40
2022-11-05T19:53:53.593Z,55.20
2022-11-05T19:56:25.949Z,55.60
2022-11-05T19:58:53.675Z,56.20
2022-11-05T20:01:22.294Z,56.30
2022-11-05T20:03:49.869Z,56.20
2022-11-05T20:06:20.593Z,56.30
2022-11-05T20:09:19.503Z,56.40
2022-11-05T20:11:40.005Z,54.70
2022-11-05T20:14:08.213Z,53.60
2022-11-05T20:16:40.038Z,53.90
2022-11-05T20:19:09.627Z,52.90
2022-11-05T20:21:37.157Z,52.80
2022-11-05T20:24:04.455Z,52.40
2022-11-05T20:26:31.848Z,53.70
2022-11-05T20:28:58.637Z,54.10
2022-11-05T20:31:25.695Z,53.20
2022-11-05T20:33:53.411Z,53.60
2022-11-05T20:36:22.925Z,54.10
2022-11-05T20:38:56.590Z,54.30
2022-11-05T20:41:24.414Z,54.80
2022-11-05T20:43:51.606Z,54.80
2022-11-05T20:46:20.338Z,55.10
2022-11-05T20:48:47.713Z,55.30
2022-11-05T20:51:22.930Z,54.80
2022-11-05T20:53:53.488Z,55.40
2022-11-05T20:56:22.889Z,56.00
2022-11-05T20:58:50.479Z,55.80
2022-11-05T21:01:18.414Z,55.90
2022-11-05T21:03:46.863Z,56.10
2022-11-05T21:06:14.392Z,56.00
2022-11-05T21:08:41.494Z,56.30
2022-11-05T21:11:09.187Z,56.50
2022-11-05T21:13:36.481Z,56.50
2022-11-05T21:16:07.776Z,56.30
2022-11-05T21:18:37.329Z,56.60
2022-11-05T21:21:08.727Z,56.80
2022-11-05T21:23:35.784Z,56.50
2022-11-05T21:26:06.813Z,56.80
2022-11-05T21:28:34.242Z,56.80
2022-11-05T21:31:02.747Z,56.70
2022-11-05T21:33:30.114Z,57.30
2022-11-05T21:35:57.284Z,57.00
2022-11-05T21:38:24.168Z,57.20
2022-11-05T21:40:50.981Z,57.50
2022-11-05T21:43:17.963Z,57.30
2022-11-05T21:45:45.431Z,57.90
2022-11-05T21:48:15.102Z,57.70
2022-11-05T21:51:01.337Z,58.10
2022-11-05T21:53:46.929Z,57.90
2022-11-05T21:56:40.148Z,58.50
2022-11-05T21:59:32.756Z,58.60
2022-11-05T22:02:02.828Z,58.50
2022-11-05T22:04:31.313Z,58.80
2022-11-05T22:06:58.237Z,58.90
2022-11-05T22:09:25.437Z,59.10
2022-11-05T22:11:52.965Z,58.90
2022-11-05T22:14:20.123Z,59.20
2022-11-05T22:16:47.211Z,59.50
2022-11-05T22:19:17.346Z,59.30
2022-11-05T22:21:44.171Z,59.50
2022-11-05T22:24:11.328Z,59.40
2022-11-05T22:26:38.999Z,58.90
2022-11-05T22:29:06.906Z,59.00
2022-11-05T22:31:36.510Z,59.00
2022-11-05T22:34:05.346Z,59.30
2022-11-05T22:36:35.561Z,59.20
2022-11-05T22:39:03.581Z,59.10
2022-11-05T22:41:30.509Z,58.90
2022-11-05T22:43:57.786Z,59.30
2022-11-05T22:46:26.370Z,58.90
2022-11-05T22:48:53.560Z,59.40
2022-11-05T22:51:26.375Z,59.30
2022-11-05T22:53:54.837Z,59.30
2022-11-05T22:56:23.951Z,58.70
2022-11-05T22:58:51.886Z,59.10
2022-11-05T23:01:19.754Z,58.90
2022-11-05T23:03:48.102Z,59.10
2022-11-05T23:06:36.696Z,59.20
2022-11-05T23:09:25.594Z,59.30
2022-11-05T23:11:53.710Z,59.60
2022-11-05T23:14:20.784Z,59.40
2022-11-05T23:17:06.180Z,59.70
2022-11-05T23:19:51.565Z,59.60
2022-11-05T23:22:40.077Z,59.70
2022-11-05T23:25:09.840Z,59.70
2022-11-05T23:27:46.555Z,60.20
2022-11-05T23:30:16.224Z,60.30
2022-11-05T23:32:43.400Z,60.30
2022-11-05T23:35:10.348Z,59.60
2022-11-05T23:37:55.772Z,59.20
2022-11-05T23:40:31.350Z,59.50
2022-11-05T23:43:16.749Z,59.70
2022-11-05T23:45:59.301Z,60.10
2022-11-05T23:48:35.317Z,59.60
2022-11-05T23:51:07.754Z,59.80
2022-11-05T23:53:36.934Z,59.70
2022-11-05T23:56:12.914Z,60.90
2022-11-05T23:58:41.113Z,60.70
